createdAt,value
2022-11-22T00:00:46.605Z,71.33
2022-11-22T00:03:13.612Z,71.43
2022-11-22T00:05:40.618Z,71.36
2022-11-22T00:08:07.780Z,71.36
2022-11-22T00:10:35.256Z,70.77
2022-11-22T00:13:03.026Z,70.79
2022-11-22T00:15:30.681Z,70.78
2022-11-22T00:17:58.038Z,70.76
2022-11-22T00:20:27.588Z,71.27
2022-11-22T00:22:58.384Z,71.55
2022-11-22T00:25:26.321Z,71.81
2022-11-22T00:27:53.802Z,71.74
2022-11-22T00:30:21.124Z,71.69
2022-11-22T00:32:50.847Z,73.94
2022-11-22T00:35:18.143Z,72.56
2022-11-22T00:38:06.382Z,72.83
2022-11-22T00:40:45.260Z,74.13
2022-11-22T00:43:12.259Z,74.35
2022-11-22T00:45:44.558Z,74.47
2022-11-22T00:48:11.598Z,74.12
2022-11-22T00:50:39.366Z,74.81
2022-11-22T00:53:06.460Z,74.99
2022-11-22T00:55:33.459Z,73.98
2022-11-22T00:58:03.319Z,73.41
2022-11-22T01:00:30.884Z,74.06
2022-11-22T01:02:58.013Z,73.78
2022-11-22T01:05:27.268Z,73.56
2022-11-22T01:07:56.779Z,74.75
2022-11-22T01:10:26.180Z,74.10
2022-11-22T01:12:53.267Z,74.19
2022-11-22T01:15:20.330Z,73.47
2022-11-22T01:17:47.320Z,73.98
2022-11-22T01:20:14.394Z,74.39
2022-11-22T01:22:41.373Z,74.54
2022-11-22T01:25:09.261Z,74.52
2022-11-22T01:27:36.508Z,76.41
2022-11-22T01:30:07.620Z,76.31
2022-11-22T01:32:34.634Z,75.66
2022-11-22T01:35:01.624Z,75.17
2022-11-22T01:37:28.673Z,75.77
2022-11-22T01:39:55.662Z,74.17
2022-11-22T01:42:22.696Z,75.64
2022-11-22T01:44:51.123Z,74.65
2022-11-22T01:47:23.929Z,74.40
2022-11-22T01:50:00.575Z,73.38
2022-11-22T01:52:34.666Z,73.70
2022-11-22T01:55:09.149Z,74.29
2022-11-22T01:57:39.254Z,74.23
2022-11-22T02:00:16.861Z,75.00
2022-11-22T02:02:51.443Z,75.84
2022-11-22T02:05:21.461Z,75.38
2022-11-22T02:07:55.788Z,75.16
2022-11-22T02:10:27.821Z,76.68
2022-11-22T02:12:59.629Z,77.24
2022-11-22T02:15:29.497Z,78.21
2022-11-22T02:17:59.832Z,75.96
2022-11-22T02:20:26.879Z,76.79
2022-11-22T02:23:16.995Z,78.14
2022-11-22T02:25:59.674Z,78.79
2022-11-22T02:28:31.053Z,79.79
2022-11-22T02:31:00.818Z,78.64
2022-11-22T02:33:27.894Z,79.73
2022-11-22T02:35:55.319Z,79.68
2022-11-22T02:38:26.879Z,80.92
2022-11-22T02:41:14.317Z,80.01
2022-11-22T02:43:47.674Z,81.09
2022-11-22T02:46:20.736Z,82.15
2022-11-22T02:48:50.592Z,82.83
2022-11-22T02:51:20.101Z,82.97
2022-11-22T02:53:57.781Z,82.22
2022-11-22T02:56:24.829Z,81.29
2022-11-22T02:58:51.921Z,81.59
2022-11-22T03:01:19.028Z,79.66
2022-11-22T03:03:46.025Z,80.56
2022-11-22T03:06:13.175Z,80.40
2022-11-22T03:08:40.179Z,80.43
2022-11-22T03:11:07.253Z,80.82
2022-11-22T03:13:34.277Z,81.13
2022-11-22T03:16:01.615Z,80.61
2022-11-22T03:18:33.065Z,80.96
2022-11-22T03:21:09.393Z,80.42
2022-11-22T03:23:37.189Z,82.69
2022-11-22T03:26:14.523Z,81.56
2022-11-22T03:28:41.512Z,81.42
2022-11-22T03:31:08.919Z,80.47
2022-11-22T03:33:36.461Z,84.10
2022-11-22T03:36:04.189Z,83.50
2022-11-22T03:38:31.973Z,82.46
2022-11-22T03:40:59.060Z,81.63
2022-11-22T03:43:28.544Z,83.32
2022-11-22T03:45:55.605Z,83.38
2022-11-22T03:48:25.049Z,84.70
2022-11-22T03:50:52.076Z,84.04
2022-11-22T03:53:19.045Z,84.59
2022-11-22T03:55:46.148Z,85.65
2022-11-22T03:58:13.174Z,83.20
2022-11-22T04:00:40.214Z,84.00
2022-11-22T04:03:07.312Z,83.71
2022-11-22T04:05:34.305Z,84.35
2022-11-22T04:08:01.281Z,83.97
2022-11-22T04:10:28.282Z,82.98
2022-11-22T04:12:59.547Z,84.79
2022-11-22T04:15:30.284Z,85.23
2022-11-22T04:17:57.258Z,86.14
2022-11-22T04:20:49.157Z,86.76
2022-11-22T04:23:19.231Z,85.77
2022-11-22T04:25:49.756Z,84.56
2022-11-22T04:28:20.063Z,84.46
2022-11-22T04:31:07.000Z,84.40
2022-11-22T04:33:34.605Z,84.21
2022-11-22T04:36:02.122Z,84.58
2022-11-22T04:38:29.307Z,85.88
2022-11-22T04:40:56.318Z,85.33
2022-11-22T04:43:48.828Z,85.77
2022-11-22T04:46:16.330Z,84.35
2022-11-22T04:48:43.454Z,83.75
2022-11-22T04:51:33.501Z,83.92
2022-11-22T04:54:00.517Z,84.13
2022-11-22T04:56:27.539Z,84.15
2022-11-22T04:58:54.993Z,83.64
2022-11-22T05:01:22.132Z,82.13
2022-11-22T05:03:49.224Z,81.43
2022-11-22T05:06:16.454Z,81.84
2022-11-22T05:08:43.479Z,82.07
2022-11-22T05:11:12.667Z,83.69
2022-11-22T05:13:42.227Z,82.77
2022-11-22T05:16:13.067Z,84.75
2022-11-22T05:18:40.339Z,83.71
2022-11-22T05:21:15.797Z,84.35
2022-11-22T05:23:54.482Z,85.51
2022-11-22T05:26:34.204Z,83.65
2022-11-22T05:29:08.725Z,84.27
2022-11-22T05:31:38.744Z,84.57
2022-11-22T05:34:08.352Z,83.96
2022-11-22T05:36:35.828Z,84.17
2022-11-22T05:39:03.705Z,83.86
2022-11-22T05:41:33.123Z,84.11
2022-11-22T05:44:01.674Z,81.81
2022-11-22T05:46:30.331Z,82.19
2022-11-22T05:48:58.672Z,84.28
2022-11-22T05:51:34.526Z,84.25
2022-11-22T05:54:03.072Z,83.63
2022-11-22T05:56:30.176Z,83.04
2022-11-22T05:58:57.186Z,85.00
2022-11-22T06:01:25.650Z,84.27
2022-11-22T06:03:53.097Z,84.37
2022-11-22T06:06:20.666Z,82.19
2022-11-22T06:08:48.760Z,82.00
2022-11-22T06:11:20.614Z,82.55
2022-11-22T06:13:51.215Z,83.42
2022-11-22T06:16:18.685Z,84.12
2022-11-22T06:18:45.857Z,83.98
2022-11-22T06:21:19.602Z,82.22
2022-11-22T06:23:46.964Z,80.93
2022-11-22T06:26:19.921Z,81.81
2022-11-22T06:28:49.414Z,81.19
2022-11-22T06:31:19.823Z,81.75
2022-11-22T06:33:47.223Z,82.52
2022-11-22T06:36:20.598Z,85.64
2022-11-22T06:38:47.974Z,84.66
2022-11-22T06:41:24.476Z,82.57
2022-11-22T06:43:53.544Z,83.06
2022-11-22T06:46:23.349Z,82.96
2022-11-22T06:48:51.065Z,84.40
2022-11-22T06:51:27.391Z,82.79
2022-11-22T06:53:58.074Z,83.49
2022-11-22T06:56:36.927Z,83.21
2022-11-22T06:59:05.980Z,83.51
2022-11-22T07:01:34.784Z,83.39
2022-11-22T07:04:04.365Z,83.54
2022-11-22T07:06:36.093Z,83.84
2022-11-22T07:09:10.093Z,84.51
2022-11-22T07:11:40.675Z,83.35
2022-11-22T07:14:09.322Z,85.57
2022-11-22T07:16:39.398Z,85.65
2022-11-22T07:19:07.322Z,85.87
2022-11-22T07:21:37.357Z,86.99
2022-11-22T07:24:06.119Z,87.33
2022-11-22T07:26:33.158Z,85.24
2022-11-22T07:29:02.707Z,84.40
2022-11-22T07:31:29.756Z,85.16
2022-11-22T07:34:00.113Z,83.63
2022-11-22T07:36:29.605Z,83.34
2022-11-22T07:38:56.886Z,84.48
2022-11-22T07:41:24.298Z,82.28
2022-11-22T07:43:53.388Z,82.34
2022-11-22T07:46:33.391Z,83.52
2022-11-22T07:49:02.032Z,84.20
2022-11-22T07:51:29.689Z,83.60
2022-11-22T07:53:59.676Z,83.11
2022-11-22T07:56:27.728Z,83.73
2022-11-22T07:58:55.470Z,82.64
2022-11-22T08:01:23.722Z,81.94
2022-11-22T08:03:50.902Z,81.79
2022-11-22T08:06:17.878Z,83.74
2022-11-22T08:08:45.178Z,82.17
2022-11-22T08:11:15.089Z,82.88
2022-11-22T08:13:44.784Z,81.81
2022-11-22T08:16:17.671Z,81.15
2022-11-22T08:18:49.714Z,80.16
2022-11-22T08:21:18.527Z,82.21
2022-11-22T08:23:52.062Z,79.20
2022-11-22T08:26:21.379Z,80.11
2022-11-22T08:28:48.366Z,79.75
2022-11-22T08:31:21.104Z,78.52
2022-11-22T08:33:48.911Z,78.93
2022-11-22T08:36:15.975Z,77.74
2022-11-22T08:38:43.056Z,78.27
2022-11-22T08:41:11.120Z,79.25
2022-11-22T08:43:38.170Z,77.82
2022-11-22T08:46:06.414Z,77.39
2022-11-22T08:48:37.733Z,76.40
2022-11-22T08:51:08.235Z,75.28
2022-11-22T08:53:38.729Z,75.61
2022-11-22T08:56:09.742Z,75.75
2022-11-22T08:58:37.645Z,76.19
2022-11-22T09:01:23.635Z,77.14
2022-11-22T09:03:50.768Z,77.60
2022-11-22T09:09:35.767Z,76.54
2022-11-22T09:11:56.158Z,76.54
2022-11-22T09:14:23.240Z,75.87
2022-11-22T09:16:50.260Z,75.27
2022-11-22T09:19:19.860Z,74.12
2022-11-22T09:21:46.835Z,76.30
2022-11-22T09:24:13.852Z,74.96
2022-11-22T09:26:50.224Z,74.34
2022-11-22T09:29:17.215Z,73.93
2022-11-22T09:31:46.574Z,73.41
2022-11-22T09:34:13.749Z,75.17
2022-11-22T09:36:43.698Z,74.14
2022-11-22T09:39:10.755Z,73.08
2022-11-22T09:42:01.224Z,72.99
2022-11-22T09:45:10.561Z,72.44
2022-11-22T09:47:59.562Z,74.10
2022-11-22T09:51:02.912Z,75.17
2022-11-22T09:53:39.437Z,73.70
2022-11-22T09:56:13.309Z,74.47
2022-11-22T09:58:51.657Z,72.82
2022-11-22T10:01:23.359Z,73.55
2022-11-22T10:04:23.059Z,73.53
2022-11-22T10:07:04.656Z,73.98
2022-11-22T10:09:51.848Z,75.52
2022-11-22T10:12:49.221Z,74.11
2022-11-22T10:15:57.524Z,72.96
2022-11-22T10:18:54.223Z,74.79
2022-11-22T10:21:21.485Z,73.07
2022-11-22T10:23:48.667Z,74.45
2022-11-22T10:26:32.687Z,74.12
2022-11-22T10:29:37.297Z,75.61
2022-11-22T10:32:30.062Z,74.99
2022-11-22T10:35:09.132Z,74.58
2022-11-22T10:37:58.776Z,74.99
2022-11-22T10:40:28.415Z,75.64
2022-11-22T10:43:20.629Z,75.41
2022-11-22T10:46:07.688Z,75.39
2022-11-22T10:48:58.554Z,76.46
2022-11-22T10:51:39.244Z,76.77
2022-11-22T10:54:32.203Z,77.04
2022-11-22T10:57:35.198Z,76.34
2022-11-22T11:00:22.774Z,75.82
2022-11-22T11:03:13.871Z,77.25
2022-11-22T11:06:21.086Z,77.16
2022-11-22T11:09:36.312Z,77.44
2022-11-22T11:11:39.162Z,76.22
2022-11-22T11:14:26.329Z,77.93
2022-11-22T11:16:56.897Z,79.33
2022-11-22T11:19:27.221Z,79.16
2022-11-22T11:22:09.639Z,78.53
2022-11-22T11:24:40.009Z,78.62
2022-11-22T11:27:09.923Z,77.88
2022-11-22T11:30:03.708Z,78.45
2022-11-22T11:32:53.093Z,80.56
2022-11-22T11:35:26.655Z,78.77
2022-11-22T11:37:55.028Z,78.90
2022-11-22T11:40:33.784Z,79.69
2022-11-22T11:43:21.076Z,79.92
2022-11-22T11:45:48.498Z,80.37
2022-11-22T11:48:41.236Z,80.88
2022-11-22T11:51:14.362Z,81.44
2022-11-22T11:54:04.200Z,82.01
2022-11-22T11:56:51.857Z,83.21
2022-11-22T11:59:44.329Z,82.18
2022-11-22T12:02:18.211Z,80.84
2022-11-22T12:05:01.692Z,82.60
2022-11-22T12:07:44.672Z,82.14
2022-11-22T12:10:58.845Z,81.18
2022-11-22T12:14:12.827Z,80.62
2022-11-22T12:16:50.564Z,81.79
2022-11-22T12:19:55.738Z,83.06
2022-11-22T12:22:50.517Z,82.01
2022-11-22T12:25:41.273Z,83.06
2022-11-22T12:28:22.683Z,83.13
2022-11-22T12:31:18.071Z,81.81
2022-11-22T12:33:53.092Z,83.21
2022-11-22T12:36:47.638Z,83.78
2022-11-22T12:39:27.039Z,83.93
2022-11-22T12:42:20.059Z,83.29
2022-11-22T12:44:59.865Z,82.68
2022-11-22T12:47:41.650Z,83.14
2022-11-22T12:50:32.612Z,83.07
2022-11-22T12:53:34.907Z,83.25
2022-11-22T12:56:33.376Z,83.30
2022-11-22T12:59:41.939Z,83.91
2022-11-22T13:02:59.228Z,83.46
2022-11-22T13:05:31.759Z,83.53
2022-11-22T13:08:21.505Z,83.61
2022-11-22T13:11:37.735Z,82.85
2022-11-22T13:14:40.431Z,84.17
2022-11-22T13:17:12.565Z,83.53
2022-11-22T13:19:49.373Z,84.15
2022-11-22T13:22:47.073Z,84.92
2022-11-22T13:25:40.679Z,86.36
2022-11-22T13:28:16.866Z,86.79
2022-11-22T13:31:12.168Z,84.77
2022-11-22T13:34:21.621Z,84.78
2022-11-22T13:36:49.868Z,85.40
2022-11-22T13:39:23.023Z,86.70
2022-11-22T13:41:58.844Z,86.20
2022-11-22T13:44:33.455Z,85.53
2022-11-22T13:47:06.291Z,85.76
2022-11-22T13:49:46.572Z,86.68
2022-11-22T13:52:15.004Z,85.56
2022-11-22T13:54:47.806Z,87.30
2022-11-22T13:57:37.505Z,85.32
2022-11-22T14:00:15.908Z,85.74
2022-11-22T14:03:11.520Z,87.66
2022-11-22T14:05:42.072Z,86.24
2022-11-22T14:08:37.822Z,85.87
2022-11-22T14:11:13.782Z,86.34
2022-11-22T14:14:12.718Z,84.92
2022-11-22T14:17:02.652Z,85.98
2022-11-22T14:20:26.973Z,86.29
2022-11-22T14:23:10.071Z,85.25
2022-11-22T14:25:55.679Z,85.42
2022-11-22T14:29:09.063Z,85.20
2022-11-22T14:31:37.131Z,85.20
2022-11-22T14:34:19.151Z,86.81
2022-11-22T14:37:12.439Z,85.29
2022-11-22T14:39:45.568Z,85.28
2022-11-22T14:42:43.018Z,85.72
2022-11-22T14:45:10.217Z,85.33
2022-11-22T14:47:52.606Z,84.84
2022-11-22T14:50:22.451Z,86.05
2022-11-22T14:52:49.684Z,86.39
2022-11-22T14:55:26.390Z,85.20
2022-11-22T14:58:08.149Z,85.57
2022-11-22T15:01:12.067Z,85.53
2022-11-22T15:03:41.902Z,84.70
2022-11-22T15:09:14.562Z,85.46
2022-11-22T15:09:53.868Z,85.73
2022-11-22T15:13:24.695Z,85.18
2022-11-22T15:57:38.445Z,84.67
2022-11-22T16:00:29.563Z,84.31
2022-11-22T16:03:01.621Z,84.85
2022-11-22T16:06:07.808Z,85.32
2022-11-22T16:08:32.385Z,84.93
2022-11-22T16:11:00.465Z,85.30
2022-11-22T16:13:33.670Z,84.69
2022-11-22T16:16:15.598Z,84.78
2022-11-22T16:18:46.023Z,83.20
2022-11-22T16:21:15.701Z,82.88
2022-11-22T16:23:46.463Z,84.07
2022-11-22T16:26:22.182Z,84.13
2022-11-22T16:28:52.638Z,83.33
2022-11-22T16:31:31.885Z,82.84
2022-11-22T16:34:00.646Z,83.22
2022-11-22T16:36:36.802Z,83.63
2022-11-22T16:39:04.089Z,83.32
2022-11-22T16:41:35.022Z,83.80
2022-11-22T16:44:13.669Z,83.77
2022-11-22T16:46:41.904Z,83.43
2022-11-22T16:49:23.002Z,83.15
2022-11-22T16:51:52.954Z,85.35
2022-11-22T16:54:24.014Z,84.74
2022-11-22T16:56:51.014Z,85.42
2022-11-22T16:59:18.107Z,84.46
2022-11-22T17:01:45.269Z,83.84
2022-11-22T17:04:22.348Z,85.13
2022-11-22T17:06:50.244Z,83.49
2022-11-22T17:09:17.724Z,83.63
2022-11-22T17:11:45.540Z,84.04
2022-11-22T17:14:17.851Z,83.29
2022-11-22T17:16:46.076Z,83.57
2022-11-22T17:19:37.496Z,83.15
2022-11-22T17:22:06.955Z,82.89
2022-11-22T17:24:34.986Z,83.26
2022-11-22T17:27:02.200Z,82.80
2022-11-22T17:29:49.471Z,83.13
2022-11-22T17:32:16.248Z,84.01
2022-11-22T17:34:43.463Z,84.03
2022-11-22T17:37:12.982Z,82.90
2022-11-22T17:39:41.151Z,83.66
2022-11-22T17:42:13.252Z,84.47
2022-11-22T17:44:40.381Z,83.29
2022-11-22T17:47:09.625Z,84.04
2022-11-22T17:49:36.940Z,83.23
2022-11-22T17:52:06.414Z,84.19
2022-11-22T17:54:33.614Z,83.07
2022-11-22T17:57:00.743Z,84.56
2022-11-22T17:59:27.956Z,83.56
2022-11-22T18:01:56.016Z,83.40
2022-11-22T18:04:25.548Z,83.22
2022-11-22T18:06:54.725Z,83.14
2022-11-22T18:09:22.089Z,83.86
2022-11-22T18:11:49.280Z,83.50
2022-11-22T18:14:16.695Z,82.21
2022-11-22T18:16:43.840Z,82.78
2022-11-22T18:19:10.915Z,82.92
2022-11-22T18:21:39.151Z,83.66
2022-11-22T18:24:11.169Z,83.37
2022-11-22T18:26:41.978Z,83.93
2022-11-22T18:29:41.149Z,83.03
2022-11-22T18:31:58.664Z,82.97
2022-11-22T18:34:26.370Z,82.67
2022-11-22T18:37:03.058Z,83.29
2022-11-22T18:39:38.540Z,82.84
2022-11-22T18:42:11.548Z,83.83
2022-11-22T18:44:38.537Z,84.70
2022-11-22T18:47:08.091Z,84.11
2022-11-22T18:49:36.046Z,83.58
2022-11-22T18:52:03.444Z,82.66
2022-11-22T18:54:30.921Z,83.31
2022-11-22T18:56:58.502Z,83.24
2022-11-22T18:59:25.725Z,83.59
2022-11-22T19:01:52.794Z,84.16
2022-11-22T19:04:24.458Z,83.57
2022-11-22T19:06:51.839Z,83.33
2022-11-22T19:09:18.916Z,82.86
2022-11-22T19:11:45.943Z,84.78
2022-11-22T19:14:13.018Z,84.24
2022-11-22T19:16:40.145Z,84.03
2022-11-22T19:19:08.867Z,83.80
2022-11-22T19:21:35.901Z,83.81
2022-11-22T19:24:03.031Z,83.34
2022-11-22T19:26:30.087Z,83.88
2022-11-22T19:28:59.843Z,83.91
2022-11-22T19:31:29.546Z,83.33
2022-11-22T19:34:00.109Z,83.83
2022-11-22T19:36:33.168Z,84.73
2022-11-22T19:39:03.954Z,84.73
2022-11-22T19:41:31.646Z,83.91
2022-11-22T19:44:02.071Z,83.82
2022-11-22T19:46:30.269Z,84.63
2022-11-22T19:48:59.513Z,83.66
2022-11-22T19:51:30.087Z,84.63
2022-11-22T19:54:04.158Z,84.19
2022-11-22T19:56:35.365Z,83.30
2022-11-22T19:59:09.847Z,84.21
2022-11-22T20:01:37.246Z,84.87
2022-11-22T20:04:06.246Z,83.70
2022-11-22T20:06:44.846Z,83.58
2022-11-22T20:09:14.394Z,83.79
2022-11-22T20:11:42.341Z,83.91
2022-11-22T20:14:10.298Z,83.87
2022-11-22T20:16:41.355Z,84.43
2022-11-22T20:19:10.645Z,84.85
2022-11-22T20:21:38.648Z,84.28
2022-11-22T20:24:06.422Z,84.48
2022-11-22T20:26:34.536Z,84.44
2022-11-22T20:29:08.094Z,84.02
2022-11-22T20:31:37.212Z,84.28
2022-11-22T20:34:04.686Z,83.42
2022-11-22T20:36:34.555Z,83.06
2022-11-22T20:39:06.969Z,83.72
2022-11-22T20:41:37.637Z,84.50
2022-11-22T20:44:05.599Z,84.99
2022-11-22T20:46:40.407Z,84.33
2022-11-22T20:49:10.066Z,84.18
2022-11-22T20:51:39.871Z,84.18
2022-11-22T20:54:08.364Z,84.14
2022-11-22T20:56:36.777Z,83.89
2022-11-22T20:59:06.992Z,83.60
2022-11-22T21:01:36.648Z,84.34
2022-11-22T21:04:03.773Z,84.46
2022-11-22T21:06:34.598Z,84.03
2022-11-22T21:09:01.973Z,83.25
2022-11-22T21:11:31.131Z,84.02
2022-11-22T21:14:01.371Z,85.23
2022-11-22T21:16:29.810Z,84.63
2022-11-22T21:19:05.116Z,84.75
2022-11-22T21:21:36.109Z,83.32
2022-11-22T21:24:06.240Z,83.54
2022-11-22T21:26:34.563Z,83.35
2022-11-22T21:29:03.366Z,83.70
2022-11-22T21:31:30.641Z,83.89
2022-11-22T21:33:57.675Z,85.12
2022-11-22T21:36:25.150Z,83.51
2022-11-22T21:38:52.382Z,82.68
2022-11-22T21:41:39.470Z,83.64
2022-11-22T21:44:08.684Z,84.12
2022-11-22T21:46:35.788Z,86.03
2022-11-22T21:49:02.851Z,84.18
2022-11-22T21:51:29.945Z,84.07
2022-11-22T21:54:00.604Z,84.82
2022-11-22T21:56:28.623Z,84.62
2022-11-22T21:58:55.930Z,84.76
2022-11-22T22:01:25.711Z,84.67
2022-11-22T22:03:53.714Z,84.87
2022-11-22T22:06:21.053Z,86.14
2022-11-22T22:08:48.337Z,84.15
2022-11-22T22:11:15.724Z,84.73
2022-11-22T22:13:45.446Z,84.95
2022-11-22T22:16:19.370Z,84.71
2022-11-22T22:18:47.292Z,85.86
2022-11-22T22:21:14.916Z,85.30
2022-11-22T22:23:43.149Z,84.61
2022-11-22T22:26:14.821Z,83.65
2022-11-22T22:28:42.618Z,83.48
2022-11-22T22:31:13.900Z,83.13
2022-11-22T22:33:41.800Z,84.53
2022-11-22T22:36:21.783Z,84.09
2022-11-22T22:38:49.033Z,83.50
2022-11-22T22:41:17.333Z,84.82
2022-11-22T22:43:47.407Z,84.10
2022-11-22T22:46:21.283Z,84.50
2022-11-22T22:48:49.821Z,84.98
2022-11-22T22:51:31.818Z,84.05
2022-11-22T22:53:59.352Z,86.19
2022-11-22T22:56:30.904Z,85.02
2022-11-22T22:59:00.821Z,85.68
2022-11-22T23:01:31.183Z,86.32
2022-11-22T23:04:01.047Z,86.47
2022-11-22T23:06:37.779Z,84.79
2022-11-22T23:09:10.450Z,85.12
2022-11-22T23:11:56.930Z,85.61
2022-11-22T23:14:30.150Z,84.72
2022-11-22T23:16:59.713Z,85.17
2022-11-22T23:19:29.570Z,84.69
2022-11-22T23:21:59.007Z,85.60
2022-11-22T23:24:28.806Z,85.12
2022-11-22T23:26:58.101Z,84.24
2022-11-22T23:29:25.122Z,85.25
2022-11-22T23:31:54.722Z,85.22
2022-11-22T23:34:21.855Z,84.62
2022-11-22T23:36:51.832Z,84.87
2022-11-22T23:39:18.848Z,86.02
2022-11-22T23:41:46.280Z,84.50
2022-11-22T23:44:13.355Z,84.49
2022-11-22T23:46:40.374Z,84.07
2022-11-22T23:49:07.826Z,84.48
2022-11-22T23:51:36.658Z,85.78
2022-11-22T23:54:07.257Z,85.75
2022-11-22T23:56:35.735Z,85.25
2022-11-22T23:59:05.124Z,84.94
